sensor_id;sensor_type;location;lat;lon;timestamp;pressure;altitude;pressure_sealevel;temperature;humidity
45941;BME280;31858;46.008;8.978;2023-01-26T00:06:23;94525.53;;;2.49;100.00
45941;BME280;31858;46.008;8.978;2023-01-26T00:16:26;94510.91;;;2.40;100.00
45941;BME280;31858;46.008;8.978;2023-01-26T00:26:28;94510.25;;;2.43;100.00
45941;BME280;31858;46.008;8.978;2023-01-26T00:36:31;94501.16;;;2.40;100.00
45941;BME280;31858;46.008;8.978;2023-01-26T00:46:33;94497.88;;;2.43;100.00
45941;BME280;31858;46.008;8.978;2023-01-26T00:56:36;94481.47;;;2.46;100.00
45941;BME280;31858;46.008;8.978;2023-01-26T01:06:38;94475.69;;;2.53;100.00
45941;BME280;31858;46.008;8.978;2023-01-26T01:16:41;94478.00;;;2.54;100.00
45941;BME280;31858;46.008;8.978;2023-01-26T01:26:43;94473.19;;;2.56;100.00
45941;BME280;31858;46.008;8.978;2023-01-26T01:36:46;94467.69;;;2.61;100.00
45941;BME280;31858;46.008;8.978;2023-01-26T01:46:51;94453.00;;;2.60;100.00
45941;BME280;31858;46.008;8.978;2023-01-26T01:56:57;94450.50;;;2.64;100.00
45941;BME280;31858;46.008;8.978;2023-01-26T02:07:01;94455.56;;;2.69;100.00
45941;BME280;31858;46.008;8.978;2023-01-26T02:17:04;94441.19;;;2.67;100.00
45941;BME280;31858;46.008;8.978;2023-01-26T02:27:07;94419.38;;;2.66;100.00
45941;BME280;31858;46.008;8.978;2023-01-26T02:37:12;94414.22;;;2.57;100.00
45941;BME280;31858;46.008;8.978;2023-01-26T02:47:17;94399.22;;;2.58;100.00
45941;BME280;31858;46.008;8.978;2023-01-26T02:57:19;94389.66;;;2.53;100.00
45941;BME280;31858;46.008;8.978;2023-01-26T03:07:22;94385.94;;;2.54;100.00
45941;BME280;31858;46.008;8.978;2023-01-26T03:17:23;94365.78;;;2.58;100.00
45941;BME280;31858;46.008;8.978;2023-01-26T03:27:26;94353.50;;;2.62;100.00
45941;BME280;31858;46.008;8.978;2023-01-26T03:37:28;94348.47;;;2.57;100.00
45941;BME280;31858;46.008;8.978;2023-01-26T03:47:37;94348.22;;;2.62;100.00
45941;BME280;31858;46.008;8.978;2023-01-26T03:57:56;94342.78;;;2.68;100.00
45941;BME280;31858;46.008;8.978;2023-01-26T04:08:02;94339.38;;;2.67;100.00
45941;BME280;31858;46.008;8.978;2023-01-26T04:18:21;94322.38;;;2.65;100.00
45941;BME280;31858;46.008;8.978;2023-01-26T04:28:42;94312.50;;;2.61;100.00
45941;BME280;31858;46.008;8.978;2023-01-26T04:38:43;94295.19;;;2.60;100.00
45941;BME280;31858;46.008;8.978;2023-01-26T04:48:46;94282.81;;;2.61;100.00
45941;BME280;31858;46.008;8.978;2023-01-26T04:58:48;94281.38;;;2.63;100.00
45941;BME280;31858;46.008;8.978;2023-01-26T05:08:51;94269.66;;;2.61;100.00
45941;BME280;31858;46.008;8.978;2023-01-26T05:18:53;94270.41;;;2.61;100.00
45941;BME280;31858;46.008;8.978;2023-01-26T05:28:56;94269.56;;;2.57;100.00
45941;BME280;31858;46.008;8.978;2023-01-26T05:38:58;94264.31;;;2.57;100.00
45941;BME280;31858;46.008;8.978;2023-01-26T05:49:00;94267.13;;;2.52;100.00
45941;BME280;31858;46.008;8.978;2023-01-26T05:59:02;94266.03;;;2.53;100.00
45941;BME280;31858;46.008;8.978;2023-01-26T06:09:05;94271.19;;;2.50;100.00
45941;BME280;31858;46.008;8.978;2023-01-26T06:19:08;94262.31;;;2.42;100.00
45941;BME280;31858;46.008;8.978;2023-01-26T06:29:11;94260.13;;;2.44;100.00
45941;BME280;31858;46.008;8.978;2023-01-26T06:39:14;94258.38;;;2.48;100.00
45941;BME280;31858;46.008;8.978;2023-01-26T06:49:17;94259.66;;;2.42;100.00
45941;BME280;31858;46.008;8.978;2023-01-26T06:59:19;94255.72;;;2.36;100.00
45941;BME280;31858;46.008;8.978;2023-01-26T07:09:22;94259.44;;;2.35;100.00
45941;BME280;31858;46.008;8.978;2023-01-26T07:19:23;94254.75;;;2.41;100.00
45941;BME280;31858;46.008;8.978;2023-01-26T07:29:26;94257.69;;;2.39;100.00
45941;BME280;31858;46.008;8.978;2023-01-26T07:39:28;94256.91;;;2.39;100.00
45941;BME280;31858;46.008;8.978;2023-01-26T07:49:31;94247.94;;;2.40;100.00
45941;BME280;31858;46.008;8.978;2023-01-26T07:59:33;94244.88;;;2.38;100.00
45941;BME280;31858;46.008;8.978;2023-01-26T08:09:36;94235.34;;;2.45;100.00
45941;BME280;31858;46.008;8.978;2023-01-26T08:19:37;94229.44;;;2.48;100.00
45941;BME280;31858;46.008;8.978;2023-01-26T08:29:40;94231.41;;;2.51;100.00
45941;BME280;31858;46.008;8.978;2023-01-26T08:39:42;94238.53;;;2.51;100.00
45941;BME280;31858;46.008;8.978;2023-01-26T08:49:45;94234.59;;;2.57;100.00
45941;BME280;31858;46.008;8.978;2023-01-26T08:59:46;94234.69;;;2.60;100.00
45941;BME280;31858;46.008;8.978;2023-01-26T09:09:49;94230.75;;;2.54;100.00
45941;BME280;31858;46.008;8.978;2023-01-26T09:19:51;94222.19;;;2.70;100.00
45941;BME280;31858;46.008;8.978;2023-01-26T09:29:54;94227.25;;;2.75;100.00
45941;BME280;31858;46.008;8.978;2023-01-26T09:39:55;94229.00;;;2.83;100.00
45941;BME280;31858;46.008;8.978;2023-01-26T09:50:01;94228.44;;;2.89;100.00
45941;BME280;31858;46.008;8.978;2023-01-26T10:00:06;94223.19;;;3.02;100.00
45941;BME280;31858;46.008;8.978;2023-01-26T10:10:19;94223.28;;;3.05;100.00
45941;BME280;31858;46.008;8.978;2023-01-26T10:20:27;94214.09;;;2.99;100.00
45941;BME280;31858;46.008;8.978;2023-01-26T10:30:32;94200.47;;;3.09;100.00
45941;BME280;31858;46.008;8.978;2023-01-26T10:40:42;94193.56;;;3.17;100.00
45941;BME280;31858;46.008;8.978;2023-01-26T10:50:46;94179.56;;;3.41;100.00
45941;BME280;31858;46.008;8.978;2023-01-26T11:00:54;94165.34;;;3.57;100.00
45941;BME280;31858;46.008;8.978;2023-01-26T11:10:57;94148.91;;;3.76;100.00
45941;BME280;31858;46.008;8.978;2023-01-26T11:21:00;94135.41;;;3.78;100.00
45941;BME280;31858;46.008;8.978;2023-01-26T11:31:13;94119.69;;;3.81;100.00
45941;BME280;31858;46.008;8.978;2023-01-26T11:41:27;94101.41;;;3.88;100.00
45941;BME280;31858;46.008;8.978;2023-01-26T11:51:44;94085.25;;;4.06;100.00
45941;BME280;31858;46.008;8.978;2023-01-26T12:01:53;94076.13;;;4.19;100.00
45941;BME280;31858;46.008;8.978;2023-01-26T12:12:03;94051.84;;;4.45;100.00
45941;BME280;31858;46.008;8.978;2023-01-26T12:22:13;94033.09;;;4.66;100.00
45941;BME280;31858;46.008;8.978;2023-01-26T12:32:18;94015.78;;;4.68;100.00
45941;BME280;31858;46.008;8.978;2023-01-26T12:42:27;93996.38;;;4.96;100.00
45941;BME280;31858;46.008;8.978;2023-01-26T12:52:37;93978.38;;;5.01;100.00
45941;BME280;31858;46.008;8.978;2023-01-26T13:02:44;93968.16;;;5.00;100.00
45941;BME280;31858;46.008;8.978;2023-01-26T13:12:49;93955.28;;;5.17;100.00
45941;BME280;31858;46.008;8.978;2023-01-26T13:22:52;93942.50;;;5.23;100.00
45941;BME280;31858;46.008;8.978;2023-01-26T13:33:04;93934.31;;;4.86;100.00
45941;BME280;31858;46.008;8.978;2023-01-26T13:43:14;93913.13;;;5.02;100.00
45941;BME280;31858;46.008;8.978;2023-01-26T13:53:38;93905.56;;;5.00;100.00
45941;BME280;31858;46.008;8.978;2023-01-26T14:03:41;93905.72;;;4.88;100.00
45941;BME280;31858;46.008;8.978;2023-01-26T14:13:46;93903.91;;;4.73;100.00
45941;BME280;31858;46.008;8.978;2023-01-26T14:23:54;93904.81;;;4.61;100.00
45941;BME280;31858;46.008;8.978;2023-01-26T14:33:58;93906.63;;;4.76;100.00
45941;BME280;31858;46.008;8.978;2023-01-26T14:44:00;93900.28;;;4.81;100.00
45941;BME280;31858;46.008;8.978;2023-01-26T14:54:11;93902.53;;;4.40;100.00
45941;BME280;31858;46.008;8.978;2023-01-26T15:04:23;93902.88;;;4.39;100.00
45941;BME280;31858;46.008;8.978;2023-01-26T15:14:32;93895.03;;;4.42;100.00
45941;BME280;31858;46.008;8.978;2023-01-26T15:24:34;93902.75;;;4.32;100.00
45941;BME280;31858;46.008;8.978;2023-01-26T15:34:38;93903.50;;;4.32;100.00
45941;BME280;31858;46.008;8.978;2023-01-26T15:44:41;93903.56;;;4.16;100.00
45941;BME280;31858;46.008;8.978;2023-01-26T15:54:44;93899.75;;;3.79;100.00
45941;BME280;31858;46.008;8.978;2023-01-26T16:04:46;93900.91;;;3.62;100.00
45941;BME280;31858;46.008;8.978;2023-01-26T16:14:49;93906.78;;;3.40;100.00
45941;BME280;31858;46.008;8.978;2023-01-26T16:24:51;93909.84;;;3.26;100.00
45941;BME280;31858;46.008;8.978;2023-01-26T16:34:54;93907.44;;;3.21;100.00
45941;BME280;31858;46.008;8.978;2023-01-26T16:44:55;93917.88;;;3.17;100.00
45941;BME280;31858;46.008;8.978;2023-01-26T16:54:58;93921.53;;;3.13;100.00
45941;BME280;31858;46.008;8.978;2023-01-26T17:05:00;93924.06;;;2.93;100.00
45941;BME280;31858;46.008;8.978;2023-01-26T17:15:04;93931.00;;;2.86;100.00
45941;BME280;31858;46.008;8.978;2023-01-26T17:25:06;93922.50;;;2.77;100.00
45941;BME280;31858;46.008;8.978;2023-01-26T17:35:09;93928.44;;;2.74;100.00
45941;BME280;31858;46.008;8.978;2023-01-26T17:45:11;93922.97;;;2.67;100.00
45941;BME280;31858;46.008;8.978;2023-01-26T17:55:14;93932.63;;;2.47;100.00
45941;BME280;31858;46.008;8.978;2023-01-26T18:05:16;93937.13;;;2.46;100.00
45941;BME280;31858;46.008;8.978;2023-01-26T18:15:18;93939.53;;;2.39;100.00
45941;BME280;31858;46.008;8.978;2023-01-26T18:25:22;93939.78;;;2.34;100.00
45941;BME280;31858;46.008;8.978;2023-01-26T18:35:25;93944.38;;;2.37;100.00
45941;BME280;31858;46.008;8.978;2023-01-26T18:45:27;93939.53;;;2.39;100.00
45941;BME280;31858;46.008;8.978;2023-01-26T18:55:29;93938.91;;;2.30;100.00
45941;BME280;31858;46.008;8.978;2023-01-26T19:05:33;93935.84;;;2.28;100.00
45941;BME280;31858;46.008;8.978;2023-01-26T19:15:36;93943.31;;;2.14;100.00
45941;BME280;31858;46.008;8.978;2023-01-26T19:25:38;93946.63;;;2.11;100.00
45941;BME280;31858;46.008;8.978;2023-01-26T19:35:41;93937.19;;;2.10;100.00
45941;BME280;31858;46.008;8.978;2023-01-26T19:45:46;93937.63;;;2.12;100.00
45941;BME280;31858;46.008;8.978;2023-01-26T19:55:49;93948.28;;;2.03;100.00
45941;BME280;31858;46.008;8.978;2023-01-26T20:05:51;93945.19;;;2.13;100.00
45941;BME280;31858;46.008;8.978;2023-01-26T20:15:55;93949.38;;;1.90;100.00
45941;BME280;31858;46.008;8.978;2023-01-26T20:26:01;93951.03;;;1.94;100.00
45941;BME280;31858;46.008;8.978;2023-01-26T20:36:06;93949.06;;;1.91;100.00
45941;BME280;31858;46.008;8.978;2023-01-26T20:46:10;93955.06;;;1.92;100.00
45941;BME280;31858;46.008;8.978;2023-01-26T20:56:13;93950.59;;;1.92;100.00
45941;BME280;31858;46.008;8.978;2023-01-26T21:06:16;93938.09;;;1.89;100.00
45941;BME280;31858;46.008;8.978;2023-01-26T21:16:20;93945.66;;;1.91;100.00
45941;BME280;31858;46.008;8.978;2023-01-26T21:26:23;93948.50;;;1.98;100.00
45941;BME280;31858;46.008;8.978;2023-01-26T21:36:29;93944.88;;;2.03;100.00
45941;BME280;31858;46.008;8.978;2023-01-26T21:46:32;93945.97;;;2.02;100.00
45941;BME280;31858;46.008;8.978;2023-01-26T21:56:36;93934.38;;;2.03;100.00
45941;BME280;31858;46.008;8.978;2023-01-26T22:06:38;93942.03;;;1.95;100.00
45941;BME280;31858;46.008;8.978;2023-01-26T22:16:41;93943.47;;;1.93;100.00
45941;BME280;31858;46.008;8.978;2023-01-26T22:26:43;93944.91;;;1.90;100.00
45941;BME280;31858;46.008;8.978;2023-01-26T22:36:46;93951.69;;;1.79;100.00
45941;BME280;31858;46.008;8.978;2023-01-26T22:46:47;93952.22;;;1.60;100.00
45941;BME280;31858;46.008;8.978;2023-01-26T22:56:50;93944.25;;;1.45;100.00
45941;BME280;31858;46.008;8.978;2023-01-26T23:06:52;93930.13;;;1.37;100.00
45941;BME280;31858;46.008;8.978;2023-01-26T23:16:56;93931.34;;;1.27;100.00
45941;BME280;31858;46.008;8.978;2023-01-26T23:26:57;93934.63;;;1.37;100.00
45941;BME280;31858;46.008;8.978;2023-01-26T23:37:01;93932.00;;;1.49;100.00
45941;BME280;31858;46.008;8.978;2023-01-26T23:47:03;93929.25;;;1.57;100.00
45941;BME280;31858;46.008;8.978;2023-01-26T23:57:06;93918.97;;;1.52;100.00
